Observation data for Silverton on 12/08/2018      Previous  Date       Current Mesonet Observations  Soil Data  Daily Summary Page  Observations in Plain Language
KSVS 080600Z 04004KT M01/M02 A3031 RMK A01 T10081015  RH  096%=      5-min Rain = 0
KSVS 080605Z 04004KT M01/M01 A3031 RMK A01 T10081014  RH  096%=      5-min Rain = 0
KSVS 080610Z 03005KT M01/M02 A3031 RMK A01 T10091015  RH  096%=      5-min Rain = 0
KSVS 080615Z 03006KT M01/M02 A303 RMK A01 T10101016  RH  096%=      5-min Rain = 0
KSVS 080620Z 02005KT M01/M02 A303 RMK A01 T10101016  RH  097%=      5-min Rain = 0
KSVS 080625Z 01005KT M01/M02 A303 RMK A01 T10111017  RH  097%=      5-min Rain = 0
KSVS 080630Z 01005KT M01/M02 A303 RMK A01 T10121018  RH  097%=      5-min Rain = 0
KSVS 080635Z 01006KT M01/M02 A3029 RMK A01 T10121018  RH  097%=      5-min Rain = 0
KSVS 080640Z 01005KT M01/M02 A3029 RMK A01 T10121018  RH  097%=      5-min Rain = 0
KSVS 080645Z 00006KT M01/M02 A3029 RMK A01 T10121017  RH  097%=      5-min Rain = 0
KSVS 080650Z 01006KT M01/M02 A3029 RMK A01 T10131019  RH  097%=      5-min Rain = 0
KSVS 080655Z 01005KT M01/M02 A3029 RMK A01 T10131018  RH  097%=      5-min Rain = 0
KSVS 080700Z 00005KT M01/M02 A3029 RMK A01 T10131018  RH  097%=      5-min Rain = 0
KSVS 080705Z 01006KT M01/M02 A3028 RMK A01 T10131018  RH  097%=      5-min Rain = 0
KSVS 080710Z 01007KT M01/M02 A3028 RMK A01 T10131019  RH  097%=      5-min Rain = 0
KSVS 080715Z 01006KT M01/M02 A3028 RMK A01 T10131018  RH  097%=      5-min Rain = 0
KSVS 080720Z 01006KT M01/M02 A3028 RMK A01 T10131018  RH  097%=      5-min Rain = 0
KSVS 080725Z 01006KT M01/M02 A3028 RMK A01 T10131018  RH  097%=      5-min Rain = 0
KSVS 080730Z 01006KT M01/M02 A3028 RMK A01 T10131018  RH  097%=      5-min Rain = 0
KSVS 080735Z 01006KT M01/M02 A3028 RMK A01 T10131018  RH  097%=      5-min Rain = 0
KSVS 080740Z 01007KT M01/M02 A3028 RMK A01 T10131018  RH  097%=      5-min Rain = 0
KSVS 080745Z 01007KT M01/M02 A3028 RMK A01 T10131018  RH  097%=      5-min Rain = 0
KSVS 080750Z 01007KT M01/M02 A3028 RMK A01 T10131018  RH  097%=      5-min Rain = 0
KSVS 080755Z 01007KT M01/M02 A3028 RMK A01 T10131018  RH  098%=      5-min Rain = 0
KSVS 080800Z 01007KT M01/M02 A3028 RMK A01 T10131018  RH  098%=      5-min Rain = 0
KSVS 080805Z 01007KT M01/M02 A3028 RMK A01 T10131018  RH  098%=      5-min Rain = 0
KSVS 080810Z 01006KT M01/M02 A3028 RMK A01 T10131017  RH  098%=      5-min Rain = 0
KSVS 080815Z 01008KT M01/M02 A3028 RMK A01 T10141018  RH  098%=      5-min Rain = 0
KSVS 080820Z 01007KT M01/M02 A3028 RMK A01 T10141018  RH  098%=      5-min Rain = 0
KSVS 080825Z 02006KT M01/M02 A3028 RMK A01 T10131018  RH  098%=      5-min Rain = 0
KSVS 080830Z 02007KT M01/M02 A3028 RMK A01 T10141018  RH  098%=      5-min Rain = 0
KSVS 080835Z 02007KT M01/M02 A3028 RMK A01 T10141018  RH  098%=      5-min Rain = 0
KSVS 080840Z 02006KT M01/M02 A3028 RMK A01 T10131017  RH  098%=      5-min Rain = 0
KSVS 080845Z 02006KT M01/M02 A3028 RMK A01 T10131017  RH  098%=      5-min Rain = 0
KSVS 080850Z 02006KT M01/M02 A3028 RMK A01 T10141018  RH  098%=      5-min Rain = 0
KSVS 080855Z 01006KT M02/M02 A3028 RMK A01 T10151019  RH  098%=      5-min Rain = 0
KSVS 080900Z 02006KT M02/M02 A3027 RMK A01 T10151019  RH  098%=      5-min Rain = 0
KSVS 080905Z 02006KT M02/M02 A3027 RMK A01 T10151019  RH  098%=      5-min Rain = 0
KSVS 080910Z 02006KT M02/M02 A3027 RMK A01 T10151019  RH  098%=      5-min Rain = 0
KSVS 080915Z 02006KT M02/M02 A3027 RMK A01 T10151019  RH  098%=      5-min Rain = 0
KSVS 080920Z 02005KT M02/M02 A3027 RMK A01 T10151019  RH  098%=      5-min Rain = 0
KSVS 080925Z 02005KT M02/M02 A3027 RMK A01 T10151018  RH  098%=      5-min Rain = 0
KSVS 080930Z 02006KT M02/M02 A3027 RMK A01 T10151019  RH  098%=      5-min Rain = 0
KSVS 080935Z 02006KT M02/M02 A3027 RMK A01 T10161019  RH  098%=      5-min Rain = 0
KSVS 080940Z 02006KT M02/M02 A3027 RMK A01 T10161020  RH  098%=      5-min Rain = 0
KSVS 080945Z 02006KT M02/M02 A3027 RMK A01 T10171021  RH  098%=      5-min Rain = 0
KSVS 080950Z 02007KT M02/M02 A3027 RMK A01 T10181022  RH  098%=      5-min Rain = 0
KSVS 080955Z 02007KT M02/M02 A3027 RMK A01 T10191023  RH  098%=      5-min Rain = 0
KSVS 081000Z 01006KT M02/M02 A3027 RMK A01 T10201024  RH  098%=      5-min Rain = 0
KSVS 081005Z 01006KT M02/M03 A3026 RMK A01 T10221026  RH  098%=      5-min Rain = 0
KSVS 081010Z 01006KT M02/M03 A3026 RMK A01 T10231027  RH  098%=      5-min Rain = 0
KSVS 081015Z 01007KT M02/M03 A3026 RMK A01 T10231028  RH  098%=      5-min Rain = 0
KSVS 081020Z 01006KT M02/M03 A3026 RMK A01 T10231028  RH  097%=      5-min Rain = 0
KSVS 081025Z 01006KT M02/M03 A3026 RMK A01 T10231028  RH  097%=      5-min Rain = 0
KSVS 081030Z 01005KT M02/M03 A3026 RMK A01 T10231028  RH  097%=      5-min Rain = 0
KSVS 081035Z 01005KT M02/M03 A3026 RMK A01 T10231027  RH  097%=      5-min Rain = 0
KSVS 081040Z 01005KT M02/M03 A3026 RMK A01 T10231027  RH  097%=      5-min Rain = 0
KSVS 081045Z 01006KT M02/M03 A3026 RMK A01 T10231027  RH  097%=      5-min Rain = 0
KSVS 081050Z 01006KT M02/M03 A3025 RMK A01 T10231028  RH  097%=      5-min Rain = 0
KSVS 081055Z 01006KT M02/M03 A3026 RMK A01 T10231028  RH  097%=      5-min Rain = 0
KSVS 081100Z 01006KT M02/M03 A3026 RMK A01 T10231028  RH  097%=      5-min Rain = 0
KSVS 081105Z 01006KT M02/M03 A3026 RMK A01 T10231028  RH  097%=      5-min Rain = 0
KSVS 081110Z 01005KT M02/M03 A3025 RMK A01 T10231028  RH  097%=      5-min Rain = 0
KSVS 081115Z 01005KT M02/M03 A3026 RMK A01 T10231028  RH  097%=      5-min Rain = 0
KSVS 081120Z 00005KT M02/M03 A3026 RMK A01 T10221027  RH  097%=      5-min Rain = 0
KSVS 081125Z 01006KT M02/M03 A3026 RMK A01 T10231027  RH  097%=      5-min Rain = 0
KSVS 081130Z 01006KT M02/M03 A3026 RMK A01 T10231027  RH  097%=      5-min Rain = 0
KSVS 081135Z 01006KT M02/M03 A3026 RMK A01 T10231027  RH  097%=      5-min Rain = 0
KSVS 081140Z 01006KT M02/M03 A3026 RMK A01 T10221027  RH  097%=      5-min Rain = 0
KSVS 081145Z 01006KT M02/M03 A3026 RMK A01 T10231027  RH  097%=      5-min Rain = 0
KSVS 081150Z 01006KT M02/M03 A3026 RMK A01 T10221027  RH  097%=      5-min Rain = 0
KSVS 081155Z 01006KT M02/M03 A3026 RMK A01 T10221027  RH  097%=      5-min Rain = 0
KSVS 081200Z 01006KT M02/M03 A3026 RMK A01 T10221027  RH  097%=      5-min Rain = 0
KSVS 081205Z 01006KT M02/M03 A3026 RMK A01 T10221027  RH  097%=      5-min Rain = 0
KSVS 081210Z 01005KT M02/M03 A3027 RMK A01 T10221027  RH  097%=      5-min Rain = 0
KSVS 081215Z 01006KT M02/M03 A3027 RMK A01 T10221027  RH  097%=      5-min Rain = 0
KSVS 081220Z 01006KT M02/M03 A3027 RMK A01 T10221027  RH  097%=      5-min Rain = 0
KSVS 081225Z 01005KT M02/M03 A3027 RMK A01 T10221027  RH  097%=      5-min Rain = 0
KSVS 081230Z 00006KT M02/M03 A3027 RMK A01 T10221026  RH  097%=      5-min Rain = 0
KSVS 081235Z 00006KT M02/M03 A3027 RMK A01 T10221027  RH  097%=      5-min Rain = 0
KSVS 081240Z 00006KT M02/M03 A3027 RMK A01 T10221027  RH  097%=      5-min Rain = 0
KSVS 081245Z 01006KT M02/M03 A3027 RMK A01 T10221027  RH  097%=      5-min Rain = 0
KSVS 081250Z 01005KT M02/M03 A3027 RMK A01 T10221027  RH  097%=      5-min Rain = 0
KSVS 081255Z 01005KT M02/M03 A3027 RMK A01 T10221027  RH  097%=      5-min Rain = 0
KSVS 081300Z 01005KT M02/M03 A3027 RMK A01 T10221027  RH  097%=      5-min Rain = 0
KSVS 081305Z 01005KT M02/M03 A3027 RMK A01 T10231028  RH  097%=      5-min Rain = 0
KSVS 081310Z 01006KT M02/M03 A3027 RMK A01 T10231028  RH  097%=      5-min Rain = 0
KSVS 081315Z 01006KT M02/M03 A3028 RMK A01 T10231028  RH  097%=      5-min Rain = 0
KSVS 081320Z 01006KT M02/M03 A3028 RMK A01 T10241028  RH  097%=      5-min Rain = 0
KSVS 081325Z 01006KT M02/M03 A3028 RMK A01 T10241029  RH  097%=      5-min Rain = 0
KSVS 081330Z 01006KT M02/M03 A3028 RMK A01 T10241029  RH  097%=      5-min Rain = 0
KSVS 081335Z 01007KT M03/M03 A3028 RMK A01 T10251030  RH  097%=      5-min Rain = 0
KSVS 081340Z 01006KT M03/M03 A3028 RMK A01 T10251030  RH  097%=      5-min Rain = 0
KSVS 081345Z 01006KT M03/M03 A3028 RMK A01 T10251030  RH  097%=      5-min Rain = 0
KSVS 081350Z 01006KT M03/M03 A3028 RMK A01 T10251030  RH  097%=      5-min Rain = 0
KSVS 081355Z 01005KT M03/M03 A3029 RMK A01 T10251030  RH  097%=      5-min Rain = 0
KSVS 081400Z 01005KT M03/M03 A3029 RMK A01 T10251030  RH  097%=      5-min Rain = 0
KSVS 081405Z 01006KT M03/M03 A3029 RMK A01 T10251030  RH  097%=      5-min Rain = 0
KSVS 081410Z 01006KT M03/M03 A3029 RMK A01 T10251030  RH  097%=      5-min Rain = 0
KSVS 081415Z 00006KT M02/M03 A3029 RMK A01 T10241029  RH  097%=      5-min Rain = 0
KSVS 081420Z 00006KT M02/M03 A3029 RMK A01 T10241029  RH  097%=      5-min Rain = 0
KSVS 081425Z 36006KT M02/M03 A3029 RMK A01 T10241029  RH  097%=      5-min Rain = 0
KSVS 081430Z 36006KT M02/M03 A3029 RMK A01 T10241029  RH  097%=      5-min Rain = 0
KSVS 081435Z 36006KT M02/M03 A3029 RMK A01 T10241029  RH  097%=      5-min Rain = 0
KSVS 081440Z 36006KT M02/M03 A3029 RMK A01 T10231029  RH  097%=      5-min Rain = 0
KSVS 081445Z 35006KT M02/M03 A3029 RMK A01 T10231028  RH  097%=      5-min Rain = 0
KSVS 081450Z 35006KT M02/M03 A303 RMK A01 T10231028  RH  097%=      5-min Rain = 0
KSVS 081455Z 35006KT M02/M03 A303 RMK A01 T10231028  RH  097%=      5-min Rain = 0
KSVS 081500Z 35006KT M02/M03 A303 RMK A01 T10231028  RH  097%=      5-min Rain = 0
KSVS 081505Z 35006KT M02/M03 A3031 RMK A01 T10231028  RH  097%=      5-min Rain = 0
KSVS 081510Z 35006KT M02/M03 A3031 RMK A01 T10231028  RH  097%=      5-min Rain = 0
KSVS 081515Z 36006KT M02/M03 A3031 RMK A01 T10231028  RH  097%=      5-min Rain = 0
KSVS 081520Z 00005KT M02/M03 A3032 RMK A01 T10231028  RH  097%=      5-min Rain = 0
KSVS 081525Z 01004KT M02/M03 A3032 RMK A01 T10221028  RH  097%=      5-min Rain = 0
KSVS 081530Z 01004KT M02/M03 A3032 RMK A01 T10221028  RH  097%=      5-min Rain = 0
KSVS 081535Z 02004KT M02/M03 A3032 RMK A01 T10211027  RH  097%=      5-min Rain = 0
KSVS 081540Z 02004KT M02/M03 A3032 RMK A01 T10211027  RH  097%=      5-min Rain = 0
KSVS 081545Z 01004KT M02/M03 A3032 RMK A01 T10211027  RH  097%=      5-min Rain = 0
KSVS 081550Z 01004KT M02/M03 A3032 RMK A01 T10201026  RH  097%=      5-min Rain = 0
KSVS 081555Z 00004KT M02/M03 A3033 RMK A01 T10201025  RH  097%=      5-min Rain = 0
KSVS 081600Z 36004KT M02/M03 A3033 RMK A01 T10201025  RH  097%=      5-min Rain = 0
KSVS 081605Z 35005KT M02/M03 A3033 RMK A01 T10201025  RH  097%=      5-min Rain = 0
KSVS 081610Z 35005KT M02/M03 A3033 RMK A01 T10201026  RH  097%=      5-min Rain = 0
KSVS 081615Z 35006KT M02/M03 A3033 RMK A01 T10211027  RH  096%=      5-min Rain = 0
KSVS 081620Z 36005KT M02/M03 A3033 RMK A01 T10211027  RH  096%=      5-min Rain = 0
KSVS 081625Z 36005KT M02/M03 A3033 RMK A01 T10211027  RH  096%=      5-min Rain = 0
KSVS 081630Z 36006KT M02/M03 A3033 RMK A01 T10221029  RH  096%=      5-min Rain = 0
KSVS 081635Z 36005KT M02/M03 A3033 RMK A01 T10221029  RH  096%=      5-min Rain = 0
KSVS 081640Z 00004KT M02/M03 A3033 RMK A01 T10221029  RH  096%=      5-min Rain = 0
KSVS 081645Z 00004KT M02/M03 A3033 RMK A01 T10211028  RH  096%=      5-min Rain = 0
KSVS 081650Z 36004KT M02/M03 A3033 RMK A01 T10211028  RH  096%=      5-min Rain = 0
KSVS 081655Z 35004KT M02/M03 A3033 RMK A01 T10201028  RH  095%=      5-min Rain = 0
KSVS 081700Z 36004KT M02/M03 A3033 RMK A01 T10201028  RH  095%=      5-min Rain = 0
KSVS 081705Z 36004KT M02/M03 A3033 RMK A01 T10201028  RH  095%=      5-min Rain = 0
KSVS 081710Z 35003KT M02/M03 A3033 RMK A01 T10201028  RH  094%=      5-min Rain = 0
KSVS 081715Z 36004KT M02/M03 A3033 RMK A01 T10201029  RH  094%=      5-min Rain = 0
KSVS 081720Z 35003KT M02/M03 A3033 RMK A01 T10201030  RH  093%=      5-min Rain = 0
KSVS 081725Z 35003KT M02/M03 A3033 RMK A01 T10191030  RH  093%=      5-min Rain = 0
KSVS 081730Z 35003KT M02/M03 A3033 RMK A01 T10201031  RH  093%=      5-min Rain = 0
KSVS 081735Z 35004KT M02/M03 A3032 RMK A01 T10201031  RH  092%=      5-min Rain = 0
KSVS 081740Z 35004KT M02/M03 A3032 RMK A01 T10191031  RH  092%=      5-min Rain = 0
KSVS 081745Z 35004KT M02/M03 A3032 RMK A01 T10191032  RH  092%=      5-min Rain = 0
KSVS 081750Z 35004KT M02/M03 A3032 RMK A01 T10201032  RH  092%=      5-min Rain = 0
KSVS 081755Z 36004KT M02/M03 A3032 RMK A01 T10191032  RH  091%=      5-min Rain = 0
KSVS 081800Z 34003KT M02/M03 A3032 RMK A01 T10191033  RH  091%=      5-min Rain = 0
KSVS 081805Z 34002KT M02/M03 A3032 RMK A01 T10171031  RH  091%=      5-min Rain = 0
KSVS 081810Z 34002KT M02/M03 A3031 RMK A01 T10171031  RH  091%=      5-min Rain = 0
KSVS 081815Z 33003KT M02/M03 A3031 RMK A01 T10161031  RH  091%=      5-min Rain = 0
KSVS 081820Z 33003KT M02/M03 A3031 RMK A01 T10161030  RH  091%=      5-min Rain = 0
KSVS 081825Z 33003KT M02/M03 A303 RMK A01 T10151029  RH  091%=      5-min Rain = 0
KSVS 081830Z 34003KT M02/M03 A303 RMK A01 T10151030  RH  090%=      5-min Rain = 0
KSVS 081835Z 34003KT M02/M03 A3029 RMK A01 T10161032  RH  089%=      5-min Rain = 0
KSVS 081840Z 34003KT M02/M03 A3029 RMK A01 T10151031  RH  089%=      5-min Rain = 0
KSVS 081845Z 33004KT M02/M03 A3029 RMK A01 T10151032  RH  089%=      5-min Rain = 0
KSVS 081850Z 33003KT M01/M03 A3029 RMK A01 T10141032  RH  088%=      5-min Rain = 0
KSVS 081855Z 33003KT M01/M03 A3029 RMK A01 T10131031  RH  088%=      5-min Rain = 0
KSVS 081900Z 34003KT M01/M03 A3028 RMK A01 T10131032  RH  087%=      5-min Rain = 0
KSVS 081905Z 34003KT M01/M03 A3028 RMK A01 T10101029  RH  088%=      5-min Rain = 0
KSVS 081910Z 33003KT M01/M03 A3028 RMK A01 T10101030  RH  087%=      5-min Rain = 0
KSVS 081915Z 32003KT M01/M03 A3028 RMK A01 T10101029  RH  088%=      5-min Rain = 0
KSVS 081920Z 32003KT M01/M03 A3027 RMK A01 T10091028  RH  088%=      5-min Rain = 0
KSVS 081925Z 33003KT M01/M03 A3027 RMK A01 T10081026  RH  089%=      5-min Rain = 0
KSVS 081930Z 33004KT M01/M03 A3027 RMK A01 T10081026  RH  088%=      5-min Rain = 0
KSVS 081935Z 33004KT M01/M03 A3027 RMK A01 T10101029  RH  088%=      5-min Rain = 0
KSVS 081940Z 32004KT M01/M03 A3027 RMK A01 T10101029  RH  087%=      5-min Rain = 0
KSVS 081945Z 32004KT M01/M03 A3027 RMK A01 T10081027  RH  087%=      5-min Rain = 0
KSVS 081950Z 33005KT M01/M03 A3027 RMK A01 T10091031  RH  085%=      5-min Rain = 0
KSVS 081955Z 33005KT M01/M04 A3027 RMK A01 T10091037  RH  082%=      5-min Rain = 0
KSVS 082000Z 32005KT M01/M04 A3026 RMK A01 T10081036  RH  082%=      5-min Rain = 0
KSVS 082005Z 33005KT M01/M04 A3026 RMK A01 T10081037  RH  081%=      5-min Rain = 0
KSVS 082010Z 32005KT M01/M04 A3026 RMK A01 T10071035  RH  082%=      5-min Rain = 0
KSVS 082015Z 32005KT M01/M04 A3026 RMK A01 T10081037  RH  081%=      5-min Rain = 0
KSVS 082020Z 33005KT M01/M04 A3026 RMK A01 T10071035  RH  082%=      5-min Rain = 0
KSVS 082025Z 33005KT M01/M04 A3026 RMK A01 T10071036  RH  082%=      5-min Rain = 0
KSVS 082030Z 33005KT M01/M04 A3026 RMK A01 T10071036  RH  081%=      5-min Rain = 0
KSVS 082035Z 33005KT M01/M04 A3025 RMK A01 T10071035  RH  081%=      5-min Rain = 0
KSVS 082040Z 33005KT M01/M04 A3025 RMK A01 T10061036  RH  081%=      5-min Rain = 0
KSVS 082045Z 32005KT M01/M03 A3025 RMK A01 T10051033  RH  081%=      5-min Rain = 0
KSVS 082050Z 32005KT M01/M03 A3025 RMK A01 T10051033  RH  081%=      5-min Rain = 0
KSVS 082055Z 32004KT M00/M03 A3025 RMK A01 T10031030  RH  083%=      5-min Rain = 0
KSVS 082100Z 32004KT M00/M03 A3025 RMK A01 T10031031  RH  082%=      5-min Rain = 0
KSVS 082105Z 32004KT M00/M03 A3025 RMK A01 T10021029  RH  082%=      5-min Rain = 0
KSVS 082110Z 32004KT M00/M03 A3024 RMK A01 T10011029  RH  082%=      5-min Rain = 0
KSVS 082115Z 32004KT 00/03 A3024 RMK A01 T00-00-27  RH  083%=      5-min Rain = 0
KSVS 082120Z 31004KT 00/03 A3024 RMK A01 T00-00-26  RH  083%=      5-min Rain = 0
KSVS 082125Z 32004KT 00/03 A3024 RMK A01 T00000-27  RH  082%=      5-min Rain = 0
KSVS 082130Z 32004KT 00/03 A3024 RMK A01 T00000-27  RH  082%=      5-min Rain = 0
KSVS 082135Z 32004KT 00/03 A3024 RMK A01 T00000-25  RH  084%=      5-min Rain = 0
KSVS 082140Z 31004KT M00/M03 A3024 RMK A01 T10011026  RH  084%=      5-min Rain = 0
KSVS 082145Z 31004KT 00/M02 A3024 RMK A01 T00021023  RH  084%=      5-min Rain = 0
KSVS 082150Z 31004KT 01/M02 A3024 RMK A01 T00051021  RH  083%=      5-min Rain = 0
KSVS 082155Z 31003KT 01/M02 A3024 RMK A01 T00061021  RH  083%=      5-min Rain = 0.01
KSVS 082200Z 31003KT 01/M02 A3024 RMK A01 T00071021  RH  083%=      5-min Rain = 0
KSVS 082205Z 32003KT 01/M02 A3024 RMK A01 T00071021  RH  082%=      5-min Rain = 0.01
KSVS 082210Z 32004KT 01/M02 A3024 RMK A01 T00071024  RH  080%=      5-min Rain = 0.01
KSVS 082215Z 32003KT 01/M02 A3024 RMK A01 T00081022  RH  081%=      5-min Rain = 0.04
KSVS 082220Z 32003KT 01/M02 A3024 RMK A01 T00081021  RH  081%=      5-min Rain = 0.04
KSVS 082225Z 33002KT 01/M02 A3024 RMK A01 T00091019  RH  082%=      5-min Rain = 0.01
KSVS 082230Z 33003KT 01/M02 A3024 RMK A01 T00091022  RH  081%=      5-min Rain = 0.01
KSVS 082235Z 33003KT 01/M02 A3024 RMK A01 T00081024  RH  080%=      5-min Rain = 0.01
KSVS 082240Z 32003KT 01/M03 A3024 RMK A01 T00071025  RH  080%=      5-min Rain = 0.01
KSVS 082245Z 32003KT 01/M03 A3024 RMK A01 T00071026  RH  079%=      5-min Rain = 0.01
KSVS 082250Z 32003KT 01/M03 A3024 RMK A01 T00061026  RH  080%=      5-min Rain = 0
KSVS 082255Z 32003KT 00/M03 A3024 RMK A01 T00041025  RH  081%=      5-min Rain = 0.01
KSVS 082300Z 31003KT 00/M03 A3024 RMK A01 T00011027  RH  082%=      5-min Rain = 0
KSVS 082305Z 30003KT 00/03 A3024 RMK A01 T00-00-31  RH  080%=      5-min Rain = 0
KSVS 082310Z 31003KT M00/M03 A3024 RMK A01 T10021033  RH  080%=      5-min Rain = 0
KSVS 082315Z 30003KT M00/M03 A3024 RMK A01 T10041033  RH  082%=      5-min Rain = 0
KSVS 082320Z 30002KT M01/M03 A3024 RMK A01 T10061033  RH  082%=      5-min Rain = 0.01
KSVS 082325Z 30003KT M01/M03 A3024 RMK A01 T10101034  RH  084%=      5-min Rain = 0
KSVS 082330Z 30002KT M01/M03 A3024 RMK A01 T10141034  RH  087%=      5-min Rain = 0
KSVS 082335Z 30002KT M02/M03 A3024 RMK A01 T10151032  RH  088%=      5-min Rain = 0
KSVS 082340Z 30003KT M02/M03 A3025 RMK A01 T10181034  RH  089%=      5-min Rain = 0.01
KSVS 082345Z 30002KT M02/M04 A3025 RMK A01 T10221037  RH  090%=      5-min Rain = 0
KSVS 082350Z 31002KT M02/M04 A3025 RMK A01 T10231037  RH  091%=      5-min Rain = 0
KSVS 082355Z 31002KT M02/M04 A3025 RMK A01 T10231037  RH  091%=      5-min Rain = 0
KSVS 090000Z 32002KT M02/M04 A3025 RMK A01 T10231037  RH  090%=      5-min Rain = 0
KSVS 090005Z 33002KT M02/M04 A3025 RMK A01 T10231038  RH  090%=      5-min Rain = 0
KSVS 090010Z 32002KT M03/M04 A3025 RMK A01 T10281043  RH  090%=      5-min Rain = 0
KSVS 090015Z 32001KT M03/M04 A3025 RMK A01 T10291043  RH  091%=      5-min Rain = 0
KSVS 090020Z 32002KT M03/M04 A3025 RMK A01 T10291042  RH  091%=      5-min Rain = 0
KSVS 090025Z 32001KT M03/M04 A3025 RMK A01 T10311043  RH  092%=      5-min Rain = 0
KSVS 090030Z 32001KT M03/M04 A3025 RMK A01 T10291041  RH  092%=      5-min Rain = 0
KSVS 090035Z 31002KT M03/M04 A3026 RMK A01 T10251037  RH  092%=      5-min Rain = 0
KSVS 090040Z 31002KT M03/M04 A3026 RMK A01 T10251040  RH  089%=      5-min Rain = 0
KSVS 090045Z 31002KT M03/M05 A3026 RMK A01 T10301047  RH  089%=      5-min Rain = 0
KSVS 090050Z 31002KT M03/M05 A3026 RMK A01 T10341049  RH  089%=      5-min Rain = 0
KSVS 090055Z 28003KT M04/M05 A3026 RMK A01 T10361051  RH  090%=      5-min Rain = 0
KSVS 090100Z 26005KT M05/M06 A3026 RMK A01 T10461062  RH  089%=      5-min Rain = 0
KSVS 090105Z 26005KT M05/M06 A3027 RMK A01 T10491064  RH  089%=      5-min Rain = 0
KSVS 090110Z 26005KT M05/M07 A3027 RMK A01 T10501066  RH  089%=      5-min Rain = 0
KSVS 090115Z 26005KT M05/M07 A3027 RMK A01 T10521067  RH  089%=      5-min Rain = 0
KSVS 090120Z 26005KT M05/M07 A3027 RMK A01 T10541069  RH  089%=      5-min Rain = 0
KSVS 090125Z 26005KT M06/M07 A3027 RMK A01 T10571072  RH  089%=      5-min Rain = 0
KSVS 090130Z 26005KT M06/M07 A3027 RMK A01 T10591073  RH  089%=      5-min Rain = 0
KSVS 090135Z 26005KT M06/M07 A3027 RMK A01 T10581072  RH  090%=      5-min Rain = 0
KSVS 090140Z 26005KT M06/M07 A3028 RMK A01 T10591073  RH  090%=      5-min Rain = 0
KSVS 090145Z 26005KT M06/M08 A3028 RMK A01 T10621076  RH  090%=      5-min Rain = 0
KSVS 090150Z 27004KT M06/M08 A3028 RMK A01 T10641078  RH  090%=      5-min Rain = 0
KSVS 090155Z 27004KT M07/M08 A3028 RMK A01 T10651079  RH  090%=      5-min Rain = 0
KSVS 090200Z 27004KT M07/M08 A3028 RMK A01 T10651079  RH  090%=      5-min Rain = 0
KSVS 090205Z 27004KT M06/M08 A3028 RMK A01 T10641078  RH  090%=      5-min Rain = 0
KSVS 090210Z 27003KT M06/M08 A3028 RMK A01 T10621075  RH  091%=      5-min Rain = 0
KSVS 090215Z 28004KT M06/M08 A3028 RMK A01 T10621075  RH  091%=      5-min Rain = 0
KSVS 090220Z 28004KT M06/M08 A3028 RMK A01 T10631076  RH  090%=      5-min Rain = 0
KSVS 090225Z 28004KT M06/M08 A3028 RMK A01 T10641077  RH  091%=      5-min Rain = 0
KSVS 090230Z 28004KT M07/M08 A3028 RMK A01 T10651078  RH  091%=      5-min Rain = 0
KSVS 090235Z 28004KT M07/M08 A3028 RMK A01 T10661079  RH  091%=      5-min Rain = 0
KSVS 090240Z 28004KT M07/M08 A3028 RMK A01 T10661079  RH  091%=      5-min Rain = 0
KSVS 090245Z 28005KT M07/M08 A3028 RMK A01 T10681080  RH  091%=      5-min Rain = 0
KSVS 090250Z 28005KT M07/M08 A3028 RMK A01 T10691081  RH  091%=      5-min Rain = 0
KSVS 090255Z 28005KT M07/M08 A3028 RMK A01 T10691082  RH  091%=      5-min Rain = 0
KSVS 090300Z 28005KT M07/M08 A3028 RMK A01 T10701083  RH  091%=      5-min Rain = 0
KSVS 090305Z 28005KT M07/M09 A3028 RMK A01 T10721085  RH  090%=      5-min Rain = 0
KSVS 090310Z 29005KT M07/M08 A3028 RMK A01 T10701083  RH  090%=      5-min Rain = 0
KSVS 090315Z 29004KT M07/M08 A3028 RMK A01 T10661078  RH  091%=      5-min Rain = 0
KSVS 090320Z 29005KT M07/M08 A3028 RMK A01 T10651077  RH  091%=      5-min Rain = 0
KSVS 090325Z 29005KT M06/M08 A3028 RMK A01 T10631075  RH  091%=      5-min Rain = 0
KSVS 090330Z 29004KT M06/M07 A3028 RMK A01 T10621074  RH  091%=      5-min Rain = 0
KSVS 090335Z 29004KT M06/M08 A3028 RMK A01 T10641077  RH  091%=      5-min Rain = 0
KSVS 090340Z 29003KT M06/M08 A3028 RMK A01 T10641077  RH  091%=      5-min Rain = 0
KSVS 090345Z 29004KT M07/M08 A3028 RMK A01 T10651077  RH  091%=      5-min Rain = 0
KSVS 090350Z 29004KT M07/M08 A3029 RMK A01 T10661079  RH  090%=      5-min Rain = 0
KSVS 090355Z 29004KT M07/M08 A3029 RMK A01 T10671080  RH  090%=      5-min Rain = 0
KSVS 090400Z 28004KT M07/M09 A3029 RMK A01 T10721086  RH  089%=      5-min Rain = 0
KSVS 090405Z 28004KT M08/M09 A3029 RMK A01 T10751089  RH  089%=      5-min Rain = 0
KSVS 090410Z 27005KT M08/M09 A3029 RMK A01 T10761091  RH  089%=      5-min Rain = 0
KSVS 090415Z 27004KT M08/M09 A3029 RMK A01 T10771091  RH  089%=      5-min Rain = 0
KSVS 090420Z 28005KT M08/M09 A3029 RMK A01 T10781092  RH  089%=      5-min Rain = 0
KSVS 090425Z 29005KT M08/M09 A3029 RMK A01 T10791094  RH  089%=      5-min Rain = 0
KSVS 090430Z 28005KT M08/M10 A303 RMK A01 T10801095  RH  089%=      5-min Rain = 0
KSVS 090435Z 28004KT M08/M10 A303 RMK A01 T10801095  RH  089%=      5-min Rain = 0
KSVS 090440Z 28005KT M08/M09 A303 RMK A01 T10801094  RH  089%=      5-min Rain = 0
KSVS 090445Z 29005KT M08/M09 A303 RMK A01 T10781092  RH  089%=      5-min Rain = 0
KSVS 090450Z 29005KT M08/M09 A303 RMK A01 T10761089  RH  090%=      5-min Rain = 0
KSVS 090455Z 29005KT M08/M09 A3031 RMK A01 T10791094  RH  089%=      5-min Rain = 0
KSVS 090500Z 29006KT M08/M10 A3031 RMK A01 T10811096  RH  089%=      5-min Rain = 0
KSVS 090505Z 28006KT M08/M10 A3031 RMK A01 T10821097  RH  089%=      5-min Rain = 0
KSVS 090510Z 27006KT M08/M10 A3031 RMK A01 T10801095  RH  089%=      5-min Rain = 0
KSVS 090515Z 27006KT M08/M09 A3031 RMK A01 T10751089  RH  090%=      5-min Rain = 0
KSVS 090520Z 27007KT M07/M09 A3032 RMK A01 T10711085  RH  090%=      5-min Rain = 0
KSVS 090525Z 28006KT M07/M08 A3032 RMK A01 T10651078  RH  090%=      5-min Rain = 0
KSVS 090530Z 28006KT M06/M08 A3032 RMK A01 T10631076  RH  090%=      5-min Rain = 0
KSVS 090535Z 29006KT M06/M08 A3031 RMK A01 T10621076  RH  090%=      5-min Rain = 0
KSVS 090540Z 30004KT M07/M08 A3031 RMK A01 T10671082  RH  089%=      5-min Rain = 0
KSVS 090545Z 30005KT M07/M09 A3031 RMK A01 T10741089  RH  089%=      5-min Rain = 0
KSVS 090550Z 30005KT M08/M09 A3031 RMK A01 T10781093  RH  089%=      5-min Rain = 0
KSVS 090555Z 30004KT M08/M10 A3031 RMK A01 T10801095  RH  089%=      5-min Rain = 0

Page generated in 0.0092 seconds.